sensor_id;sensor_type;location;lat;lon;timestamp;temperature;humidity
74155;DHT22;62509;46.248;6.018;2023-09-19T00:02:33;16.20;99.90
74155;DHT22;62509;46.248;6.018;2023-09-19T00:07:38;16.10;99.90
74155;DHT22;62509;46.248;6.018;2023-09-19T00:12:44;16.20;99.90
74155;DHT22;62509;46.248;6.018;2023-09-19T00:17:47;16.20;99.90
74155;DHT22;62509;46.248;6.018;2023-09-19T00:22:50;16.20;99.90
74155;DHT22;62509;46.248;6.018;2023-09-19T00:27:56;16.20;99.90
74155;DHT22;62509;46.248;6.018;2023-09-19T00:33:00;16.10;99.90
74155;DHT22;62509;46.248;6.018;2023-09-19T00:38:07;16.00;99.90
74155;DHT22;62509;46.248;6.018;2023-09-19T00:43:12;16.00;99.90
74155;DHT22;62509;46.248;6.018;2023-09-19T00:48:15;16.00;99.90
74155;DHT22;62509;46.248;6.018;2023-09-19T00:53:21;16.00;99.90
74155;DHT22;62509;46.248;6.018;2023-09-19T00:58:26;16.10;99.90
74155;DHT22;62509;46.248;6.018;2023-09-19T01:03:36;16.10;99.90
74155;DHT22;62509;46.248;6.018;2023-09-19T01:08:39;16.10;99.90
74155;DHT22;62509;46.248;6.018;2023-09-19T01:13:47;16.10;99.90
74155;DHT22;62509;46.248;6.018;2023-09-19T01:18:55;16.10;99.90
74155;DHT22;62509;46.248;6.018;2023-09-19T01:24:10;16.10;99.90
74155;DHT22;62509;46.248;6.018;2023-09-19T01:29:26;16.10;99.90
74155;DHT22;62509;46.248;6.018;2023-09-19T01:34:44;16.10;99.90
74155;DHT22;62509;46.248;6.018;2023-09-19T01:39:51;16.10;99.90
74155;DHT22;62509;46.248;6.018;2023-09-19T01:44:57;16.10;99.90
74155;DHT22;62509;46.248;6.018;2023-09-19T01:50:10;16.00;99.90
74155;DHT22;62509;46.248;6.018;2023-09-19T01:55:16;16.10;99.90
74155;DHT22;62509;46.248;6.018;2023-09-19T02:00:20;16.20;99.90
74155;DHT22;62509;46.248;6.018;2023-09-19T02:05:26;16.10;99.90
74155;DHT22;62509;46.248;6.018;2023-09-19T02:10:30;16.20;99.90
74155;DHT22;62509;46.248;6.018;2023-09-19T02:15:33;16.10;99.90
74155;DHT22;62509;46.248;6.018;2023-09-19T02:20:41;16.00;99.90
74155;DHT22;62509;46.248;6.018;2023-09-19T02:25:51;16.00;99.90
74155;DHT22;62509;46.248;6.018;2023-09-19T02:30:55;16.00;99.90
74155;DHT22;62509;46.248;6.018;2023-09-19T02:36:00;16.00;99.90
74155;DHT22;62509;46.248;6.018;2023-09-19T02:41:05;16.00;99.90
74155;DHT22;62509;46.248;6.018;2023-09-19T02:46:09;16.00;99.90
74155;DHT22;62509;46.248;6.018;2023-09-19T02:51:15;16.00;99.90
74155;DHT22;62509;46.248;6.018;2023-09-19T02:56:18;16.00;99.90
74155;DHT22;62509;46.248;6.018;2023-09-19T03:01:21;15.90;99.90
74155;DHT22;62509;46.248;6.018;2023-09-19T03:06:26;15.90;99.90
74155;DHT22;62509;46.248;6.018;2023-09-19T03:11:32;15.90;99.90
74155;DHT22;62509;46.248;6.018;2023-09-19T03:16:36;15.90;99.90
74155;DHT22;62509;46.248;6.018;2023-09-19T03:21:41;15.90;99.90
74155;DHT22;62509;46.248;6.018;2023-09-19T03:26:44;15.90;99.90
74155;DHT22;62509;46.248;6.018;2023-09-19T03:31:48;15.80;99.90
74155;DHT22;62509;46.248;6.018;2023-09-19T03:36:53;15.70;99.90
74155;DHT22;62509;46.248;6.018;2023-09-19T03:41:57;15.80;99.90
74155;DHT22;62509;46.248;6.018;2023-09-19T03:47:00;15.80;99.90
74155;DHT22;62509;46.248;6.018;2023-09-19T03:52:05;15.80;99.90
74155;DHT22;62509;46.248;6.018;2023-09-19T03:57:09;15.90;99.90
74155;DHT22;62509;46.248;6.018;2023-09-19T04:02:14;16.00;99.90
74155;DHT22;62509;46.248;6.018;2023-09-19T04:07:25;15.80;99.90
74155;DHT22;62509;46.248;6.018;2023-09-19T04:12:30;15.90;99.90
74155;DHT22;62509;46.248;6.018;2023-09-19T04:17:34;15.90;99.90
74155;DHT22;62509;46.248;6.018;2023-09-19T04:22:38;16.00;99.90
74155;DHT22;62509;46.248;6.018;2023-09-19T04:27:42;16.00;99.90
74155;DHT22;62509;46.248;6.018;2023-09-19T04:32:47;16.00;99.90
74155;DHT22;62509;46.248;6.018;2023-09-19T04:37:54;16.00;99.90
74155;DHT22;62509;46.248;6.018;2023-09-19T04:42:58;16.00;99.90
74155;DHT22;62509;46.248;6.018;2023-09-19T04:48:01;16.00;99.90
74155;DHT22;62509;46.248;6.018;2023-09-19T04:53:07;16.10;99.90
74155;DHT22;62509;46.248;6.018;2023-09-19T04:58:10;16.10;99.90
74155;DHT22;62509;46.248;6.018;2023-09-19T05:03:13;16.10;99.90
74155;DHT22;62509;46.248;6.018;2023-09-19T05:08:19;16.20;99.90
74155;DHT22;62509;46.248;6.018;2023-09-19T05:13:23;16.10;99.90
74155;DHT22;62509;46.248;6.018;2023-09-19T05:18:27;16.10;99.90
74155;DHT22;62509;46.248;6.018;2023-09-19T05:23:32;16.10;99.90
74155;DHT22;62509;46.248;6.018;2023-09-19T05:28:35;16.10;99.90
74155;DHT22;62509;46.248;6.018;2023-09-19T05:33:39;16.10;99.90
74155;DHT22;62509;46.248;6.018;2023-09-19T05:38:46;16.20;99.90
74155;DHT22;62509;46.248;6.018;2023-09-19T05:43:52;16.20;99.90
74155;DHT22;62509;46.248;6.018;2023-09-19T05:48:56;16.20;99.90
74155;DHT22;62509;46.248;6.018;2023-09-19T05:54:01;16.20;99.90
74155;DHT22;62509;46.248;6.018;2023-09-19T05:59:07;16.30;99.90
74155;DHT22;62509;46.248;6.018;2023-09-19T06:04:10;16.50;99.90
74155;DHT22;62509;46.248;6.018;2023-09-19T06:09:15;16.50;99.90
74155;DHT22;62509;46.248;6.018;2023-09-19T06:14:19;16.70;99.90
74155;DHT22;62509;46.248;6.018;2023-09-19T06:19:22;16.80;99.90
74155;DHT22;62509;46.248;6.018;2023-09-19T06:24:28;16.80;99.90
74155;DHT22;62509;46.248;6.018;2023-09-19T06:29:32;16.90;99.90
74155;DHT22;62509;46.248;6.018;2023-09-19T06:34:36;16.90;99.90
74155;DHT22;62509;46.248;6.018;2023-09-19T06:39:41;16.80;99.90
74155;DHT22;62509;46.248;6.018;2023-09-19T06:44:44;16.80;99.90
74155;DHT22;62509;46.248;6.018;2023-09-19T06:49:48;16.80;99.90
74155;DHT22;62509;46.248;6.018;2023-09-19T06:54:54;16.80;99.90
74155;DHT22;62509;46.248;6.018;2023-09-19T06:59:57;17.20;99.90
74155;DHT22;62509;46.248;6.018;2023-09-19T07:05:00;17.40;99.90
74155;DHT22;62509;46.248;6.018;2023-09-19T07:10:05;17.30;99.90
74155;DHT22;62509;46.248;6.018;2023-09-19T07:15:11;17.40;99.90
74155;DHT22;62509;46.248;6.018;2023-09-19T07:20:15;17.30;99.90
74155;DHT22;62509;46.248;6.018;2023-09-19T07:25:20;17.60;99.90
74155;DHT22;62509;46.248;6.018;2023-09-19T07:30:24;17.60;99.90
74155;DHT22;62509;46.248;6.018;2023-09-19T07:35:28;17.40;99.90
74155;DHT22;62509;46.248;6.018;2023-09-19T07:40:33;17.40;99.90
74155;DHT22;62509;46.248;6.018;2023-09-19T07:45:36;17.60;99.90
74155;DHT22;62509;46.248;6.018;2023-09-19T07:50:40;17.60;99.90
74155;DHT22;62509;46.248;6.018;2023-09-19T07:55:46;17.80;99.90
74155;DHT22;62509;46.248;6.018;2023-09-19T08:00:50;18.00;99.90
74155;DHT22;62509;46.248;6.018;2023-09-19T08:05:55;18.10;99.90
74155;DHT22;62509;46.248;6.018;2023-09-19T08:11:00;18.30;99.90
74155;DHT22;62509;46.248;6.018;2023-09-19T08:16:05;18.50;99.90
74155;DHT22;62509;46.248;6.018;2023-09-19T08:21:08;18.30;99.90
74155;DHT22;62509;46.248;6.018;2023-09-19T08:26:14;18.40;99.90
74155;DHT22;62509;46.248;6.018;2023-09-19T08:31:18;18.50;99.90
74155;DHT22;62509;46.248;6.018;2023-09-19T08:36:22;18.60;99.90
74155;DHT22;62509;46.248;6.018;2023-09-19T08:41:27;18.80;99.90
74155;DHT22;62509;46.248;6.018;2023-09-19T08:46:30;18.80;99.90
74155;DHT22;62509;46.248;6.018;2023-09-19T08:51:39;19.20;99.90
74155;DHT22;62509;46.248;6.018;2023-09-19T08:56:49;19.10;99.90
74155;DHT22;62509;46.248;6.018;2023-09-19T09:01:53;19.10;99.90
74155;DHT22;62509;46.248;6.018;2023-09-19T09:06:58;19.40;99.90
74155;DHT22;62509;46.248;6.018;2023-09-19T09:12:04;19.70;99.90
74155;DHT22;62509;46.248;6.018;2023-09-19T09:17:09;19.90;99.90
74155;DHT22;62509;46.248;6.018;2023-09-19T09:22:13;20.10;95.10
74155;DHT22;62509;46.248;6.018;2023-09-19T09:27:19;20.20;98.00
74155;DHT22;62509;46.248;6.018;2023-09-19T09:32:26;20.30;95.10
74155;DHT22;62509;46.248;6.018;2023-09-19T09:37:30;20.50;94.90
74155;DHT22;62509;46.248;6.018;2023-09-19T09:42:35;20.70;92.10
74155;DHT22;62509;46.248;6.018;2023-09-19T09:47:41;20.80;85.80
74155;DHT22;62509;46.248;6.018;2023-09-19T09:52:51;20.90;85.00
74155;DHT22;62509;46.248;6.018;2023-09-19T10:03:32;21.40;79.00
74155;DHT22;62509;46.248;6.018;2023-09-19T10:08:42;21.70;79.40
74155;DHT22;62509;46.248;6.018;2023-09-19T10:14:05;21.80;75.30
74155;DHT22;62509;46.248;6.018;2023-09-19T10:19:14;21.70;71.70
74155;DHT22;62509;46.248;6.018;2023-09-19T10:24:19;21.90;70.90
74155;DHT22;62509;46.248;6.018;2023-09-19T10:29:24;21.80;67.00
74155;DHT22;62509;46.248;6.018;2023-09-19T10:34:33;22.00;63.40
74155;DHT22;62509;46.248;6.018;2023-09-19T10:39:37;22.20;63.20
74155;DHT22;62509;46.248;6.018;2023-09-19T10:44:44;22.00;61.30
74155;DHT22;62509;46.248;6.018;2023-09-19T10:49:48;21.90;61.70
74155;DHT22;62509;46.248;6.018;2023-09-19T10:54:52;22.10;60.20
74155;DHT22;62509;46.248;6.018;2023-09-19T11:00:04;22.40;61.20
74155;DHT22;62509;46.248;6.018;2023-09-19T11:05:23;22.60;56.60
74155;DHT22;62509;46.248;6.018;2023-09-19T11:10:45;22.30;56.10
74155;DHT22;62509;46.248;6.018;2023-09-19T11:21:41;22.70;56.30
74155;DHT22;62509;46.248;6.018;2023-09-19T11:32:18;22.70;55.00
74155;DHT22;62509;46.248;6.018;2023-09-19T11:37:59;22.80;52.00
74155;DHT22;62509;46.248;6.018;2023-09-19T11:43:28;22.70;52.50
74155;DHT22;62509;46.248;6.018;2023-09-19T11:48:39;22.70;50.80
74155;DHT22;62509;46.248;6.018;2023-09-19T11:53:45;23.00;48.00
74155;DHT22;62509;46.248;6.018;2023-09-19T11:58:50;22.90;46.80
74155;DHT22;62509;46.248;6.018;2023-09-19T12:03:57;23.20;49.10
74155;DHT22;62509;46.248;6.018;2023-09-19T12:09:04;23.50;48.00
74155;DHT22;62509;46.248;6.018;2023-09-19T12:14:21;23.50;47.00
74155;DHT22;62509;46.248;6.018;2023-09-19T12:19:35;23.70;47.10
74155;DHT22;62509;46.248;6.018;2023-09-19T12:24:40;23.80;45.50
74155;DHT22;62509;46.248;6.018;2023-09-19T12:29:47;23.80;46.00
74155;DHT22;62509;46.248;6.018;2023-09-19T12:34:54;23.60;44.90
74155;DHT22;62509;46.248;6.018;2023-09-19T12:40:04;23.80;44.90
74155;DHT22;62509;46.248;6.018;2023-09-19T12:45:19;23.30;45.30
74155;DHT22;62509;46.248;6.018;2023-09-19T12:50:27;23.40;45.40
74155;DHT22;62509;46.248;6.018;2023-09-19T12:55:34;23.70;45.20
74155;DHT22;62509;46.248;6.018;2023-09-19T13:00:40;23.90;43.50
74155;DHT22;62509;46.248;6.018;2023-09-19T13:05:50;23.70;43.50
74155;DHT22;62509;46.248;6.018;2023-09-19T13:11:04;23.80;43.00
74155;DHT22;62509;46.248;6.018;2023-09-19T13:16:16;23.90;42.20
74155;DHT22;62509;46.248;6.018;2023-09-19T13:21:30;24.00;41.70
74155;DHT22;62509;46.248;6.018;2023-09-19T13:26:39;24.00;41.30
74155;DHT22;62509;46.248;6.018;2023-09-19T13:31:45;24.00;40.70
74155;DHT22;62509;46.248;6.018;2023-09-19T13:36:52;23.90;39.70
74155;DHT22;62509;46.248;6.018;2023-09-19T13:41:56;23.80;40.50
74155;DHT22;62509;46.248;6.018;2023-09-19T13:46:59;23.90;39.00
74155;DHT22;62509;46.248;6.018;2023-09-19T13:52:05;23.80;38.70
74155;DHT22;62509;46.248;6.018;2023-09-19T13:57:10;23.70;38.30
74155;DHT22;62509;46.248;6.018;2023-09-19T14:02:15;23.60;38.70
74155;DHT22;62509;46.248;6.018;2023-09-19T14:07:21;23.70;38.40
74155;DHT22;62509;46.248;6.018;2023-09-19T14:12:26;23.60;37.20
74155;DHT22;62509;46.248;6.018;2023-09-19T14:17:30;23.60;37.70
74155;DHT22;62509;46.248;6.018;2023-09-19T14:22:37;23.60;37.00
74155;DHT22;62509;46.248;6.018;2023-09-19T14:27:41;23.60;37.70
74155;DHT22;62509;46.248;6.018;2023-09-19T14:32:47;23.70;38.10
74155;DHT22;62509;46.248;6.018;2023-09-19T14:37:54;23.60;37.80
74155;DHT22;62509;46.248;6.018;2023-09-19T14:42:58;23.70;38.60
74155;DHT22;62509;46.248;6.018;2023-09-19T14:48:02;23.70;38.90
74155;DHT22;62509;46.248;6.018;2023-09-19T14:53:08;23.70;38.40
74155;DHT22;62509;46.248;6.018;2023-09-19T14:58:16;23.60;39.40
74155;DHT22;62509;46.248;6.018;2023-09-19T15:03:23;23.60;40.10
74155;DHT22;62509;46.248;6.018;2023-09-19T15:08:33;23.50;39.40
74155;DHT22;62509;46.248;6.018;2023-09-19T15:13:42;23.50;40.20
74155;DHT22;62509;46.248;6.018;2023-09-19T15:18:50;23.40;39.80
74155;DHT22;62509;46.248;6.018;2023-09-19T15:23:59;23.40;39.60
74155;DHT22;62509;46.248;6.018;2023-09-19T15:29:05;23.20;40.20
74155;DHT22;62509;46.248;6.018;2023-09-19T15:34:19;23.30;40.50
74155;DHT22;62509;46.248;6.018;2023-09-19T15:39:25;23.20;40.80
74155;DHT22;62509;46.248;6.018;2023-09-19T15:44:29;23.20;41.60
74155;DHT22;62509;46.248;6.018;2023-09-19T15:49:35;23.20;41.30
74155;DHT22;62509;46.248;6.018;2023-09-19T15:54:41;23.10;39.90
74155;DHT22;62509;46.248;6.018;2023-09-19T15:59:50;23.00;40.60
74155;DHT22;62509;46.248;6.018;2023-09-19T16:04:54;23.00;38.60
74155;DHT22;62509;46.248;6.018;2023-09-19T16:10:00;22.90;39.00
74155;DHT22;62509;46.248;6.018;2023-09-19T16:15:06;23.00;38.80
74155;DHT22;62509;46.248;6.018;2023-09-19T16:20:16;22.80;40.90
74155;DHT22;62509;46.248;6.018;2023-09-19T16:25:23;22.70;40.80
74155;DHT22;62509;46.248;6.018;2023-09-19T16:30:32;22.50;42.00
74155;DHT22;62509;46.248;6.018;2023-09-19T16:35:37;22.40;42.00
74155;DHT22;62509;46.248;6.018;2023-09-19T16:40:52;22.30;41.90
74155;DHT22;62509;46.248;6.018;2023-09-19T16:45:58;22.10;43.20
74155;DHT22;62509;46.248;6.018;2023-09-19T16:51:06;22.10;44.20
74155;DHT22;62509;46.248;6.018;2023-09-19T16:56:13;21.90;44.50
74155;DHT22;62509;46.248;6.018;2023-09-19T17:01:18;21.80;45.60
74155;DHT22;62509;46.248;6.018;2023-09-19T17:06:22;21.50;46.60
74155;DHT22;62509;46.248;6.018;2023-09-19T17:11:28;21.40;47.20
74155;DHT22;62509;46.248;6.018;2023-09-19T17:16:32;21.20;48.00
74155;DHT22;62509;46.248;6.018;2023-09-19T17:21:36;21.00;49.40
74155;DHT22;62509;46.248;6.018;2023-09-19T17:26:41;20.80;51.60
74155;DHT22;62509;46.248;6.018;2023-09-19T17:31:45;20.40;58.10
74155;DHT22;62509;46.248;6.018;2023-09-19T17:36:49;20.10;62.30
74155;DHT22;62509;46.248;6.018;2023-09-19T17:42:08;19.80;65.10
74155;DHT22;62509;46.248;6.018;2023-09-19T17:47:14;19.60;68.20
74155;DHT22;62509;46.248;6.018;2023-09-19T17:52:20;19.20;68.20
74155;DHT22;62509;46.248;6.018;2023-09-19T17:57:25;19.00;72.20
74155;DHT22;62509;46.248;6.018;2023-09-19T18:02:29;18.80;79.40
74155;DHT22;62509;46.248;6.018;2023-09-19T18:07:33;18.60;79.30
74155;DHT22;62509;46.248;6.018;2023-09-19T18:12:39;18.40;83.90
74155;DHT22;62509;46.248;6.018;2023-09-19T18:17:43;18.40;84.70
74155;DHT22;62509;46.248;6.018;2023-09-19T18:22:47;18.30;90.30
74155;DHT22;62509;46.248;6.018;2023-09-19T18:27:56;17.90;92.90
74155;DHT22;62509;46.248;6.018;2023-09-19T18:33:03;17.70;92.30
74155;DHT22;62509;46.248;6.018;2023-09-19T18:38:07;17.50;94.00
74155;DHT22;62509;46.248;6.018;2023-09-19T18:43:13;17.40;94.90
74155;DHT22;62509;46.248;6.018;2023-09-19T18:48:18;17.50;95.50
74155;DHT22;62509;46.248;6.018;2023-09-19T18:53:21;17.40;97.10
74155;DHT22;62509;46.248;6.018;2023-09-19T18:58:30;17.00;99.90
74155;DHT22;62509;46.248;6.018;2023-09-19T19:03:35;16.70;99.90
74155;DHT22;62509;46.248;6.018;2023-09-19T19:08:42;16.80;99.90
74155;DHT22;62509;46.248;6.018;2023-09-19T19:13:51;16.70;99.90
74155;DHT22;62509;46.248;6.018;2023-09-19T19:18:56;16.70;99.90
74155;DHT22;62509;46.248;6.018;2023-09-19T19:24:04;16.50;99.90
74155;DHT22;62509;46.248;6.018;2023-09-19T19:29:10;16.40;99.90
74155;DHT22;62509;46.248;6.018;2023-09-19T19:34:16;16.30;99.90
74155;DHT22;62509;46.248;6.018;2023-09-19T19:39:23;16.30;99.90
74155;DHT22;62509;46.248;6.018;2023-09-19T19:44:32;16.20;99.90
74155;DHT22;62509;46.248;6.018;2023-09-19T19:49:40;16.20;99.90
74155;DHT22;62509;46.248;6.018;2023-09-19T19:54:49;15.90;99.90
74155;DHT22;62509;46.248;6.018;2023-09-19T19:59:57;15.90;99.90
74155;DHT22;62509;46.248;6.018;2023-09-19T20:05:03;15.80;99.90
74155;DHT22;62509;46.248;6.018;2023-09-19T20:10:09;15.80;99.90
74155;DHT22;62509;46.248;6.018;2023-09-19T20:15:16;15.80;99.90
74155;DHT22;62509;46.248;6.018;2023-09-19T20:20:20;15.70;99.90
74155;DHT22;62509;46.248;6.018;2023-09-19T20:25:25;15.70;99.90
74155;DHT22;62509;46.248;6.018;2023-09-19T20:30:32;15.40;99.90
74155;DHT22;62509;46.248;6.018;2023-09-19T20:35:36;15.20;99.90
74155;DHT22;62509;46.248;6.018;2023-09-19T20:40:43;15.10;99.90
74155;DHT22;62509;46.248;6.018;2023-09-19T20:45:50;15.20;99.90
74155;DHT22;62509;46.248;6.018;2023-09-19T20:50:55;15.20;99.90
74155;DHT22;62509;46.248;6.018;2023-09-19T20:56:10;15.20;99.90
74155;DHT22;62509;46.248;6.018;2023-09-19T21:01:18;15.00;99.90
74155;DHT22;62509;46.248;6.018;2023-09-19T21:06:25;14.90;99.90
74155;DHT22;62509;46.248;6.018;2023-09-19T21:11:30;15.10;99.90
74155;DHT22;62509;46.248;6.018;2023-09-19T21:16:36;14.90;99.90
74155;DHT22;62509;46.248;6.018;2023-09-19T21:21:43;14.60;99.90
74155;DHT22;62509;46.248;6.018;2023-09-19T21:26:51;14.60;99.90
74155;DHT22;62509;46.248;6.018;2023-09-19T21:31:57;14.50;99.90
74155;DHT22;62509;46.248;6.018;2023-09-19T21:37:01;14.40;99.90
74155;DHT22;62509;46.248;6.018;2023-09-19T21:42:06;14.40;99.90
74155;DHT22;62509;46.248;6.018;2023-09-19T21:47:16;14.50;99.90
74155;DHT22;62509;46.248;6.018;2023-09-19T21:52:21;14.70;99.90
74155;DHT22;62509;46.248;6.018;2023-09-19T21:57:30;14.60;99.90
74155;DHT22;62509;46.248;6.018;2023-09-19T22:02:40;14.50;99.90
74155;DHT22;62509;46.248;6.018;2023-09-19T22:07:44;14.20;99.90
74155;DHT22;62509;46.248;6.018;2023-09-19T22:12:52;13.90;99.90
74155;DHT22;62509;46.248;6.018;2023-09-19T22:18:03;13.70;99.90
74155;DHT22;62509;46.248;6.018;2023-09-19T22:23:09;13.90;99.90
74155;DHT22;62509;46.248;6.018;2023-09-19T22:28:14;14.00;99.90
74155;DHT22;62509;46.248;6.018;2023-09-19T22:33:25;13.90;99.90
74155;DHT22;62509;46.248;6.018;2023-09-19T22:38:29;13.70;99.90
74155;DHT22;62509;46.248;6.018;2023-09-19T22:43:36;13.70;99.90
74155;DHT22;62509;46.248;6.018;2023-09-19T22:48:52;13.70;99.90
74155;DHT22;62509;46.248;6.018;2023-09-19T22:54:07;13.90;99.90
74155;DHT22;62509;46.248;6.018;2023-09-19T22:59:14;13.90;99.90
74155;DHT22;62509;46.248;6.018;2023-09-19T23:04:21;13.90;99.90
74155;DHT22;62509;46.248;6.018;2023-09-19T23:09:27;13.80;99.90
74155;DHT22;62509;46.248;6.018;2023-09-19T23:14:37;13.80;99.90
74155;DHT22;62509;46.248;6.018;2023-09-19T23:19:45;13.80;99.90
74155;DHT22;62509;46.248;6.018;2023-09-19T23:24:58;13.70;99.90
74155;DHT22;62509;46.248;6.018;2023-09-19T23:30:14;13.80;99.90
74155;DHT22;62509;46.248;6.018;2023-09-19T23:35:22;13.50;99.90
74155;DHT22;62509;46.248;6.018;2023-09-19T23:40:34;13.10;99.90
74155;DHT22;62509;46.248;6.018;2023-09-19T23:45:42;13.00;99.90
74155;DHT22;62509;46.248;6.018;2023-09-19T23:50:51;13.00;99.90
74155;DHT22;62509;46.248;6.018;2023-09-19T23:55:55;13.20;99.90
